sensor_id;sensor_type;location;lat;lon;timestamp;pressure;altitude;pressure_sealevel;temperature;humidity
68994;BME280;56054;50.968;5.816;2023-03-20T06:45:41;101144.13;;;6.70;100.00
68994;BME280;56054;50.968;5.816;2023-03-20T06:48:55;101149.06;;;6.77;100.00
68994;BME280;56054;50.968;5.816;2023-03-20T06:52:02;101151.00;;;6.80;100.00
68994;BME280;56054;50.968;5.816;2023-03-20T06:55:11;101166.38;;;6.78;100.00
68994;BME280;56054;50.968;5.816;2023-03-20T06:58:19;101168.16;;;6.90;100.00
68994;BME280;56054;50.968;5.816;2023-03-20T07:01:27;101167.41;;;6.91;100.00
68994;BME280;56054;50.968;5.816;2023-03-20T07:04:34;101166.13;;;6.96;100.00
68994;BME280;56054;50.968;5.816;2023-03-20T07:07:42;101162.09;;;6.99;100.00
68994;BME280;56054;50.968;5.816;2023-03-20T07:10:49;101168.94;;;7.09;100.00
68994;BME280;56054;50.968;5.816;2023-03-20T07:13:56;101162.38;;;7.13;100.00
68994;BME280;56054;50.968;5.816;2023-03-20T07:17:21;101172.06;;;7.15;100.00
68994;BME280;56054;50.968;5.816;2023-03-20T07:20:28;101176.69;;;7.19;100.00
68994;BME280;56054;50.968;5.816;2023-03-20T07:23:35;101185.75;;;7.14;100.00
68994;BME280;56054;50.968;5.816;2023-03-20T07:26:42;101185.09;;;7.27;100.00
68994;BME280;56054;50.968;5.816;2023-03-20T07:29:49;101181.22;;;7.32;100.00
68994;BME280;56054;50.968;5.816;2023-03-20T07:32:58;101196.47;;;7.39;100.00
68994;BME280;56054;50.968;5.816;2023-03-20T07:36:13;101198.78;;;7.46;100.00
68994;BME280;56054;50.968;5.816;2023-03-20T07:39:21;101204.34;;;7.41;100.00
68994;BME280;56054;50.968;5.816;2023-03-20T07:43:01;101203.81;;;7.45;100.00
68994;BME280;56054;50.968;5.816;2023-03-20T07:46:42;101212.84;;;7.60;100.00
68994;BME280;56054;50.968;5.816;2023-03-20T07:49:49;101205.34;;;7.53;100.00
68994;BME280;56054;50.968;5.816;2023-03-20T07:52:58;101207.78;;;7.72;100.00
68994;BME280;56054;50.968;5.816;2023-03-20T07:56:06;101208.66;;;7.72;100.00
68994;BME280;56054;50.968;5.816;2023-03-20T07:59:13;101211.13;;;7.81;100.00
68994;BME280;56054;50.968;5.816;2023-03-20T16:11:15;100979.69;;;9.63;100.00
68994;BME280;56054;50.968;5.816;2023-03-20T16:14:28;100985.19;;;9.68;100.00
68994;BME280;56054;50.968;5.816;2023-03-20T16:17:37;100985.72;;;9.75;100.00
68994;BME280;56054;50.968;5.816;2023-03-20T16:20:54;100975.25;;;9.74;100.00
68994;BME280;56054;50.968;5.816;2023-03-20T16:24:06;100971.28;;;9.79;100.00
68994;BME280;56054;50.968;5.816;2023-03-20T16:27:23;100970.13;;;9.87;100.00
68994;BME280;56054;50.968;5.816;2023-03-20T16:30:31;100976.66;;;9.94;100.00
68994;BME280;56054;50.968;5.816;2023-03-20T16:33:39;100968.28;;;9.98;100.00
68994;BME280;56054;50.968;5.816;2023-03-20T16:36:57;100969.38;;;10.01;100.00
68994;BME280;56054;50.968;5.816;2023-03-20T16:40:20;100968.88;;;10.07;100.00
68994;BME280;56054;50.968;5.816;2023-03-20T16:43:30;100970.50;;;10.05;100.00
68994;BME280;56054;50.968;5.816;2023-03-20T16:46:55;100975.78;;;10.06;100.00
68994;BME280;56054;50.968;5.816;2023-03-20T16:50:24;100971.97;;;10.01;100.00
68994;BME280;56054;50.968;5.816;2023-03-20T16:53:41;100970.28;;;10.02;100.00
68994;BME280;56054;50.968;5.816;2023-03-20T16:56:54;100975.25;;;9.99;100.00
68994;BME280;56054;50.968;5.816;2023-03-20T17:00:32;100967.69;;;10.02;100.00
68994;BME280;56054;50.968;5.816;2023-03-20T17:03:55;100973.88;;;10.04;100.00
68994;BME280;56054;50.968;5.816;2023-03-20T17:10:19;100981.03;;;9.95;100.00
68994;BME280;56054;50.968;5.816;2023-03-20T17:13:26;100986.81;;;9.91;100.00
68994;BME280;56054;50.968;5.816;2023-03-20T17:16:33;100987.50;;;9.88;100.00
68994;BME280;56054;50.968;5.816;2023-03-20T17:19:52;100984.78;;;9.86;100.00
68994;BME280;56054;50.968;5.816;2023-03-20T17:22:59;100987.41;;;9.86;100.00
68994;BME280;56054;50.968;5.816;2023-03-20T17:26:10;100979.41;;;9.83;100.00
68994;BME280;56054;50.968;5.816;2023-03-20T17:29:17;100989.66;;;9.82;100.00
68994;BME280;56054;50.968;5.816;2023-03-20T17:32:24;100981.09;;;9.83;100.00
68994;BME280;56054;50.968;5.816;2023-03-20T17:35:32;100986.06;;;9.80;100.00
68994;BME280;56054;50.968;5.816;2023-03-20T17:38:43;100975.78;;;9.81;100.00
68994;BME280;56054;50.968;5.816;2023-03-20T17:41:50;100980.53;;;9.75;100.00
68994;BME280;56054;50.968;5.816;2023-03-20T17:44:59;100979.75;;;9.76;100.00
68994;BME280;56054;50.968;5.816;2023-03-20T17:48:12;100978.75;;;9.74;100.00
68994;BME280;56054;50.968;5.816;2023-03-20T17:51:19;100981.56;;;9.77;100.00
68994;BME280;56054;50.968;5.816;2023-03-20T17:54:26;100987.56;;;9.76;100.00
68994;BME280;56054;50.968;5.816;2023-03-20T17:57:38;100989.56;;;9.80;100.00
68994;BME280;56054;50.968;5.816;2023-03-20T18:00:49;100989.34;;;9.77;100.00
68994;BME280;56054;50.968;5.816;2023-03-20T18:03:56;100991.56;;;9.84;100.00
68994;BME280;56054;50.968;5.816;2023-03-20T18:07:03;100977.69;;;9.84;100.00
68994;BME280;56054;50.968;5.816;2023-03-20T18:10:24;100980.28;;;9.84;100.00
68994;BME280;56054;50.968;5.816;2023-03-20T18:13:33;100984.03;;;9.88;100.00
68994;BME280;56054;50.968;5.816;2023-03-20T18:16:39;100984.78;;;9.86;100.00
68994;BME280;56054;50.968;5.816;2023-03-20T18:19:46;100988.41;;;9.89;100.00
68994;BME280;56054;50.968;5.816;2023-03-20T18:22:53;100987.84;;;9.93;100.00
68994;BME280;56054;50.968;5.816;2023-03-20T18:26:00;100980.94;;;9.93;100.00
68994;BME280;56054;50.968;5.816;2023-03-20T18:29:09;100990.50;;;9.94;100.00
68994;BME280;56054;50.968;5.816;2023-03-20T18:32:17;100985.44;;;9.96;100.00
68994;BME280;56054;50.968;5.816;2023-03-20T18:35:24;100989.75;;;9.95;100.00
68994;BME280;56054;50.968;5.816;2023-03-20T18:38:31;100997.63;;;9.97;100.00
68994;BME280;56054;50.968;5.816;2023-03-20T18:41:38;101006.97;;;9.95;100.00
68994;BME280;56054;50.968;5.816;2023-03-20T18:44:45;101001.44;;;10.02;100.00
68994;BME280;56054;50.968;5.816;2023-03-20T18:47:55;100992.88;;;10.03;100.00
68994;BME280;56054;50.968;5.816;2023-03-20T18:51:02;100998.06;;;10.03;100.00
68994;BME280;56054;50.968;5.816;2023-03-20T18:54:09;100993.06;;;10.06;100.00
68994;BME280;56054;50.968;5.816;2023-03-20T18:57:16;100987.88;;;10.06;100.00
68994;BME280;56054;50.968;5.816;2023-03-20T19:00:26;100988.06;;;10.09;100.00
68994;BME280;56054;50.968;5.816;2023-03-20T19:03:33;100990.69;;;10.09;100.00
68994;BME280;56054;50.968;5.816;2023-03-20T19:06:43;100987.19;;;10.08;100.00
68994;BME280;56054;50.968;5.816;2023-03-20T19:09:52;100987.19;;;10.08;100.00
68994;BME280;56054;50.968;5.816;2023-03-20T19:13:04;100983.13;;;10.12;100.00
68994;BME280;56054;50.968;5.816;2023-03-20T19:16:34;100977.69;;;10.09;100.00
68994;BME280;56054;50.968;5.816;2023-03-20T19:19:41;100977.00;;;10.12;100.00
68994;BME280;56054;50.968;5.816;2023-03-20T19:22:47;100975.91;;;10.08;100.00
68994;BME280;56054;50.968;5.816;2023-03-20T19:25:55;100980.41;;;10.11;100.00
68994;BME280;56054;50.968;5.816;2023-03-20T19:29:09;100975.41;;;10.14;100.00
68994;BME280;56054;50.968;5.816;2023-03-20T19:32:16;100980.72;;;10.15;100.00
68994;BME280;56054;50.968;5.816;2023-03-20T19:35:29;100982.19;;;10.12;100.00
68994;BME280;56054;50.968;5.816;2023-03-20T19:38:36;100985.09;;;10.16;100.00
68994;BME280;56054;50.968;5.816;2023-03-20T19:41:42;100981.50;;;10.14;100.00
68994;BME280;56054;50.968;5.816;2023-03-20T19:44:49;100981.50;;;10.14;100.00
68994;BME280;56054;50.968;5.816;2023-03-20T19:47:58;100973.84;;;10.16;100.00
68994;BME280;56054;50.968;5.816;2023-03-20T19:51:13;100974.63;;;10.15;100.00
68994;BME280;56054;50.968;5.816;2023-03-20T19:54:23;100975.72;;;10.18;100.00
68994;BME280;56054;50.968;5.816;2023-03-20T19:57:30;100976.44;;;10.16;100.00
68994;BME280;56054;50.968;5.816;2023-03-20T20:00:43;100973.03;;;10.17;100.00
68994;BME280;56054;50.968;5.816;2023-03-20T20:03:52;100972.03;;;10.15;100.00
68994;BME280;56054;50.968;5.816;2023-03-20T20:06:59;100966.94;;;10.16;100.00
68994;BME280;56054;50.968;5.816;2023-03-20T20:10:07;100967.06;;;10.18;100.00
68994;BME280;56054;50.968;5.816;2023-03-20T20:13:16;100965.47;;;10.20;100.00
68994;BME280;56054;50.968;5.816;2023-03-20T20:16:23;100965.47;;;10.20;100.00
68994;BME280;56054;50.968;5.816;2023-03-20T20:19:30;100967.16;;;10.19;100.00
68994;BME280;56054;50.968;5.816;2023-03-20T20:22:38;100968.16;;;10.21;100.00
68994;BME280;56054;50.968;5.816;2023-03-20T20:25:49;100965.47;;;10.20;100.00
68994;BME280;56054;50.968;5.816;2023-03-20T20:28:55;100965.34;;;10.18;100.00
68994;BME280;56054;50.968;5.816;2023-03-20T20:32:03;100960.84;;;10.16;100.00
68994;BME280;56054;50.968;5.816;2023-03-20T20:35:10;100961.16;;;10.20;100.00
68994;BME280;56054;50.968;5.816;2023-03-20T20:38:16;100957.69;;;10.20;100.00
68994;BME280;56054;50.968;5.816;2023-03-20T20:41:23;100956.16;;;10.23;100.00
68994;BME280;56054;50.968;5.816;2023-03-20T20:44:30;100954.38;;;10.22;100.00
68994;BME280;56054;50.968;5.816;2023-03-20T20:47:45;100963.66;;;10.19;100.00
68994;BME280;56054;50.968;5.816;2023-03-20T20:50:58;100957.34;;;10.15;100.00
68994;BME280;56054;50.968;5.816;2023-03-20T20:54:15;100962.06;;;10.21;100.00
68994;BME280;56054;50.968;5.816;2023-03-20T20:57:27;100959.16;;;10.16;100.00
68994;BME280;56054;50.968;5.816;2023-03-20T21:00:35;100960.97;;;10.17;100.00
68994;BME280;56054;50.968;5.816;2023-03-20T21:03:42;100953.94;;;10.16;100.00
68994;BME280;56054;50.968;5.816;2023-03-20T21:06:49;100954.66;;;10.14;100.00
68994;BME280;56054;50.968;5.816;2023-03-20T21:09:56;100951.97;;;10.12;100.00
68994;BME280;56054;50.968;5.816;2023-03-20T21:13:08;100957.56;;;10.18;100.00
68994;BME280;56054;50.968;5.816;2023-03-20T21:16:40;100964.44;;;10.18;100.00
68994;BME280;56054;50.968;5.816;2023-03-20T21:19:48;100954.75;;;10.15;100.00
68994;BME280;56054;50.968;5.816;2023-03-20T21:22:58;100959.16;;;10.16;100.00
68994;BME280;56054;50.968;5.816;2023-03-20T21:26:07;100958.75;;;10.10;100.00
68994;BME280;56054;50.968;5.816;2023-03-20T21:29:24;100953.63;;;10.12;100.00
68994;BME280;56054;50.968;5.816;2023-03-20T21:32:33;100962.34;;;10.12;100.00
68994;BME280;56054;50.968;5.816;2023-03-20T21:39:53;100962.34;;;10.12;100.00
68994;BME280;56054;50.968;5.816;2023-03-20T21:43:00;100953.94;;;10.16;100.00
68994;BME280;56054;50.968;5.816;2023-03-20T21:46:07;100961.66;;;10.15;100.00
68994;BME280;56054;50.968;5.816;2023-03-20T21:49:15;100959.75;;;10.12;100.00
68994;BME280;56054;50.968;5.816;2023-03-20T21:52:22;100957.16;;;10.12;100.00
68994;BME280;56054;50.968;5.816;2023-03-20T21:55:29;100957.94;;;10.11;100.00
68994;BME280;56054;50.968;5.816;2023-03-20T21:58:35;100956.16;;;10.10;100.00
68994;BME280;56054;50.968;5.816;2023-03-20T22:01:48;100956.03;;;10.08;100.00
68994;BME280;56054;50.968;5.816;2023-03-20T22:04:54;100958.75;;;10.10;100.00
68994;BME280;56054;50.968;5.816;2023-03-20T22:08:03;100963.31;;;10.14;100.00
68994;BME280;56054;50.968;5.816;2023-03-20T22:11:11;100965.94;;;10.14;100.00
68994;BME280;56054;50.968;5.816;2023-03-20T22:14:17;100956.16;;;10.10;100.00
68994;BME280;56054;50.968;5.816;2023-03-20T22:17:28;100965.94;;;10.14;100.00
68994;BME280;56054;50.968;5.816;2023-03-20T22:20:35;100971.34;;;10.17;100.00
68994;BME280;56054;50.968;5.816;2023-03-20T22:23:42;100966.84;;;10.15;100.00
68994;BME280;56054;50.968;5.816;2023-03-20T22:26:48;100959.16;;;10.16;100.00
68994;BME280;56054;50.968;5.816;2023-03-20T22:29:58;100964.34;;;10.16;100.00
68994;BME280;56054;50.968;5.816;2023-03-20T22:33:05;100956.47;;;10.15;100.00
68994;BME280;56054;50.968;5.816;2023-03-20T22:36:11;100964.44;;;10.18;100.00
68994;BME280;56054;50.968;5.816;2023-03-20T22:39:21;100954.06;;;10.18;100.00
68994;BME280;56054;50.968;5.816;2023-03-20T22:42:53;100947.75;;;10.14;100.00
68994;BME280;56054;50.968;5.816;2023-03-20T22:46:01;100945.97;;;10.13;100.00
68994;BME280;56054;50.968;5.816;2023-03-20T22:49:13;100947.75;;;10.14;100.00
68994;BME280;56054;50.968;5.816;2023-03-20T22:52:24;100946.84;;;10.14;100.00
68994;BME280;56054;50.968;5.816;2023-03-20T22:55:31;100951.16;;;10.13;100.00
68994;BME280;56054;50.968;5.816;2023-03-20T22:58:38;100946.84;;;10.14;100.00
68994;BME280;56054;50.968;5.816;2023-03-20T23:01:48;100937.38;;;10.14;100.00
68994;BME280;56054;50.968;5.816;2023-03-20T23:04:55;100940.78;;;10.13;100.00
68994;BME280;56054;50.968;5.816;2023-03-20T23:08:03;100941.56;;;10.12;100.00
68994;BME280;56054;50.968;5.816;2023-03-20T23:52:07;100915.91;;;10.17;100.00
68994;BME280;56054;50.968;5.816;2023-03-20T23:55:17;100906.31;;;10.16;100.00
68994;BME280;56054;50.968;5.816;2023-03-20T23:58:25;100904.53;;;10.15;100.00
